
Distance (Route):
Temperature : 15.8°C
Humidity : 48.9%
Pressure : 0hPa| Receiver | Frames | First received | Last received |
|---|---|---|---|
| LZ4TU-5 | 131 | 2026-08-31 11:06:34 | 2026-08-31 12:52:22 |
| Receiver | Date | Latitude | Longitude | Direction | Speed | Altitude | Climb | Temperature | Humidity | Pressure | Voltage | Killtimer | Uptime | BKT | XDATA |
|---|---|---|---|---|---|---|---|---|---|---|---|---|---|---|---|
| LZ4TU-5 | 2026-08-31 12:52:22 | 44.20537 | 26.61781 | 279° | 5km/h | 1645m | -13.0m/s | 15.8°C | 48.9% | 0hPa | 0V | 08:19:00 | 00:00:00 | 00:00:00 | |
| LZ4TU-5 | 2026-08-31 12:52:15 | 44.20535 | 26.61795 | 251° | 9km/h | 1721m | -12.7m/s | 15.2°C | 51.5% | 0hPa | 0V | 08:19:00 | 00:00:00 | 00:00:00 | |
| LZ4TU-5 | 2026-08-31 12:52:11 | 44.20539 | 26.61803 | 206° | 4km/h | 1770m | -12.3m/s | 15.6°C | 56.7% | 0hPa | 0V | 08:19:00 | 00:00:00 | 00:00:00 | |
| LZ4TU-5 | 2026-08-31 12:52:07 | 44.20543 | 26.61809 | 211° | 4km/h | 1819m | -12.9m/s | 15.4°C | 57.8% | 0hPa | 0V | 08:19:00 | 00:00:00 | 00:00:00 | |
| LZ4TU-5 | 2026-08-31 12:52:03 | 44.20547 | 26.61814 | 230° | 5km/h | 1883m | -13.2m/s | 15.0°C | 59.0% | 0hPa | 0V | 08:19:00 | 00:00:00 | 00:00:00 | |
| LZ4TU-5 | 2026-08-31 12:51:59 | 44.20552 | 26.61817 | 191° | 4km/h | 1933m | -12.2m/s | 14.6°C | 57.6% | 0hPa | 0V | 08:19:00 | 00:00:00 | 00:00:00 | |
| LZ4TU-5 | 2026-08-31 12:51:53 | 44.20558 | 26.61820 | 213° | 9km/h | 1993m | -12.2m/s | 14.2°C | 58.5% | 0hPa | 0V | 08:19:00 | 00:00:00 | 00:00:00 | |
| LZ4TU-5 | 2026-08-31 12:51:49 | 44.20567 | 26.61824 | 209° | 13km/h | 2045m | -12.2m/s | 14.0°C | 54.4% | 0hPa | 0V | 08:19:00 | 00:00:00 | 00:00:00 | |
| LZ4TU-5 | 2026-08-31 12:51:46 | 44.20580 | 26.61830 | 184° | 13km/h | 2108m | -13.0m/s | 13.6°C | 48.8% | 0hPa | 0V | 08:19:00 | 00:00:00 | 00:00:00 | |
| LZ4TU-5 | 2026-08-31 12:51:40 | 44.20592 | 26.61835 | 192° | 13km/h | 2158m | -13.2m/s | 13.1°C | 50.2% | 0hPa | 0V | 08:19:00 | 00:00:00 | 00:00:00 | |
| LZ4TU-5 | 2026-08-31 12:51:35 | 44.20608 | 26.61841 | 189° | 15km/h | 2220m | -12.7m/s | 12.7°C | 45.3% | 0hPa | 0V | 08:19:00 | 00:00:00 | 00:00:00 | |
| LZ4TU-5 | 2026-08-31 12:51:31 | 44.20622 | 26.61846 | 178° | 13km/h | 2270m | -12.2m/s | 12.3°C | 45.4% | 0hPa | 0V | 08:20:00 | 00:00:00 | 00:00:00 | |
| LZ4TU-5 | 2026-08-31 12:51:27 | 44.20639 | 26.61846 | 184° | 13km/h | 2332m | -12.6m/s | 11.8°C | 53.3% | 0hPa | 0V | 08:20:00 | 00:00:00 | 00:00:00 | |
| LZ4TU-5 | 2026-08-31 12:51:21 | 44.20658 | 26.61844 | 163° | 16km/h | 2393m | -12.9m/s | 11.5°C | 54.4% | 0hPa | 0V | 08:20:00 | 00:00:00 | 00:00:00 | |
| LZ4TU-5 | 2026-08-31 12:51:17 | 44.20679 | 26.61836 | 151° | 18km/h | 2456m | -13.4m/s | 11.1°C | 53.0% | 0hPa | 0V | 08:20:00 | 00:00:00 | 00:00:00 | |
| LZ4TU-5 | 2026-08-31 12:51:12 | 44.20699 | 26.61827 | 153° | 16km/h | 2517m | -12.5m/s | 10.7°C | 58.9% | 0hPa | 0V | 08:20:00 | 00:00:00 | 00:00:00 | |
| LZ4TU-5 | 2026-08-31 12:51:07 | 44.20714 | 26.61819 | 170° | 16km/h | 2564m | -11.9m/s | 10.4°C | 59.3% | 0hPa | 0V | 08:20:00 | 00:00:00 | 00:00:00 | |
| LZ4TU-5 | 2026-08-31 12:51:02 | 44.20733 | 26.61808 | 142° | 16km/h | 2629m | -12.8m/s | 10.2°C | 57.2% | 0hPa | 0V | 08:20:00 | 00:00:00 | 00:00:00 | |
| LZ4TU-5 | 2026-08-31 12:50:58 | 44.20747 | 26.61799 | 148° | 15km/h | 2679m | -13.1m/s | 9.9°C | 53.1% | 0hPa | 0V | 08:20:00 | 00:00:00 | 00:00:00 | |
| LZ4TU-5 | 2026-08-31 12:50:53 | 44.20763 | 26.61787 | 154° | 13km/h | 2743m | -11.6m/s | 9.7°C | 50.5% | 0hPa | 0V | 08:20:00 | 00:00:00 | 00:00:00 | |
| LZ4TU-5 | 2026-08-31 12:50:49 | 44.20777 | 26.61777 | 147° | 16km/h | 2794m | -12.5m/s | 9.3°C | 52.0% | 0hPa | 0V | 08:20:00 | 00:00:00 | 00:00:00 | |
| LZ4TU-5 | 2026-08-31 12:50:39 | 44.20813 | 26.61757 | 151° | 16km/h | 2923m | -14.2m/s | 8.2°C | 55.1% | 0hPa | 0V | 08:21:00 | 00:00:00 | 00:00:00 | |
| LZ4TU-5 | 2026-08-31 12:50:34 | 44.20832 | 26.61747 | 153° | 15km/h | 2991m | -12.8m/s | 7.5°C | 56.2% | 0hPa | 0V | 08:21:00 | 00:00:00 | 00:00:00 | |
| LZ4TU-5 | 2026-08-31 12:50:30 | 44.20847 | 26.61739 | 165° | 15km/h | 3042m | -12.4m/s | 7.1°C | 56.3% | 0hPa | 0V | 08:21:00 | 00:00:00 | 00:00:00 | |
| LZ4TU-5 | 2026-08-31 12:50:25 | 44.20865 | 26.61728 | 166° | 15km/h | 3107m | -12.5m/s | 6.4°C | 61.0% | 0hPa | 0V | 08:21:00 | 00:00:00 | 00:00:00 | |
| LZ4TU-5 | 2026-08-31 12:50:21 | 44.20880 | 26.61718 | 150° | 18km/h | 3159m | -12.4m/s | 5.9°C | 62.6% | 0hPa | 0V | 08:21:00 | 00:00:00 | 00:00:00 | |
| LZ4TU-5 | 2026-08-31 12:50:17 | 44.20897 | 26.61706 | 168° | 16km/h | 3212m | -13.2m/s | 5.3°C | 70.6% | 0hPa | 0V | 08:21:00 | 00:00:00 | 00:00:00 | |
| LZ4TU-5 | 2026-08-31 12:50:13 | 44.20914 | 26.61696 | 154° | 18km/h | 3267m | -13.7m/s | 5.0°C | 72.9% | 0hPa | 0V | 08:21:00 | 00:00:00 | 00:00:00 | |
| LZ4TU-5 | 2026-08-31 12:50:08 | 44.20936 | 26.61683 | 151° | 18km/h | 3332m | -13.6m/s | 4.5°C | 74.0% | 0hPa | 0V | 08:21:00 | 00:00:00 | 00:00:00 | |
| LZ4TU-5 | 2026-08-31 12:50:03 | 44.20955 | 26.61675 | 163° | 16km/h | 3396m | -13.9m/s | 4.3°C | 62.8% | 0hPa | 0V | 08:21:00 | 00:00:00 | 00:00:00 | |
| LZ4TU-5 | 2026-08-31 12:49:58 | 44.20975 | 26.61670 | 167° | 13km/h | 3462m | -12.7m/s | 4.6°C | 25.1% | 0hPa | 0V | 08:21:00 | 00:00:00 | 00:00:00 | |
| LZ4TU-5 | 2026-08-31 12:49:53 | 44.20993 | 26.61666 | 179° | 16km/h | 3531m | -15.0m/s | 4.3°C | 25.9% | 0hPa | 0V | 08:21:00 | 00:00:00 | 00:00:00 | |
| LZ4TU-5 | 2026-08-31 12:49:50 | 44.21008 | 26.61663 | 155° | 15km/h | 3583m | -14.4m/s | 4.0°C | 34.8% | 0hPa | 0V | 00:00:00 | 00:00:00 | 00:00:00 | |
| LZ4TU-5 | 2026-08-31 12:49:40 | 44.21037 | 26.61647 | 167° | 15km/h | 3706m | -12.6m/s | 3.5°C | 22.6% | 0hPa | 0V | 00:00:00 | 00:00:00 | 00:00:00 | |
| LZ4TU-5 | 2026-08-31 12:49:35 | 44.21054 | 26.61637 | 141° | 16km/h | 3769m | -13.0m/s | 3.3°C | 15.4% | 0hPa | 0V | 00:00:00 | 00:00:00 | 00:00:00 | |
| LZ4TU-5 | 2026-08-31 12:47:29 | 44.21577 | 26.61236 | 152° | 29km/h | 5507m | -14.7m/s | -5.7°C | 11.4% | 0hPa | 0V | 00:00:00 | 00:00:00 | 00:00:00 | |
| LZ4TU-5 | 2026-08-31 12:47:24 | 44.21609 | 26.61212 | 149° | 27km/h | 5578m | -14.9m/s | -6.3°C | 10.9% | 0hPa | 0V | 00:00:00 | 00:00:00 | 00:00:00 | |
| LZ4TU-5 | 2026-08-31 12:45:35 | 44.22397 | 26.60438 | 139° | 42km/h | 7222m | -15.1m/s | -17.9°C | 7.5% | 0hPa | 0V | 00:00:00 | 00:00:00 | 00:00:00 | |
| LZ4TU-5 | 2026-08-31 12:45:29 | 44.22434 | 26.60384 | 130° | 42km/h | 7297m | -14.7m/s | -18.5°C | 5.9% | 0hPa | 0V | 00:00:00 | 00:00:00 | 00:00:00 | |
| LZ4TU-5 | 2026-08-31 12:43:31 | 44.23366 | 26.58662 | 137° | 66km/h | 9149m | -17.1m/s | -33.4°C | 27.7% | 0hPa | 0V | 00:00:00 | 00:00:00 | 00:00:00 | |
| LZ4TU-5 | 2026-08-31 12:43:27 | 44.23427 | 26.58588 | 141° | 64km/h | 9230m | -16.4m/s | -34.0°C | 0% | 0hPa | 0V | 00:00:00 | 00:00:00 | 00:00:00 | |
| LZ4TU-5 | 2026-08-31 12:41:10 | 44.25390 | 26.57019 | 152° | 69km/h | 11706m | -19.8m/s | -52.9°C | 26.6% | 0hPa | 0V | 00:00:00 | 00:00:00 | 00:00:00 | |
| LZ4TU-5 | 2026-08-31 12:41:05 | 44.25466 | 26.56962 | 152° | 68km/h | 11805m | -21.1m/s | -53.3°C | 28.5% | 0hPa | 0V | 00:00:00 | 00:00:00 | 00:00:00 | |
| LZ4TU-5 | 2026-08-31 12:39:00 | -12.04198 | -77.03715 | 207° | 197km/h | 657m | -2.2m/s | -59.2°C | 7.4% | 0hPa | 0V | 00:00:00 | 00:00:00 | 00:00:00 | |
| LZ4TU-5 | 2026-08-31 12:38:56 | -12.04016 | -77.03636 | 192° | 197km/h | 678m | -3.2m/s | -59.0°C | 7.3% | 0hPa | 0V | 00:00:00 | 00:00:00 | 00:00:00 | |
| LZ4TU-5 | 2026-08-31 12:38:51 | -12.03770 | -77.03604 | 179° | 197km/h | 691m | -2.1m/s | -59.3°C | 7.3% | 0hPa | 0V | 00:00:00 | 00:00:00 | 00:00:00 | |
| LZ4TU-5 | 2026-08-31 12:36:57 | -12.03513 | -77.03209 | 0° | 0km/h | 441m | 0.0m/s | -57.9°C | 0% | 0hPa | 0V | 00:00:00 | 00:00:00 | 00:00:00 | |
| LZ4TU-5 | 2026-08-31 12:36:52 | -12.03344 | -77.03182 | 126° | 197km/h | 494m | 0.2m/s | -58.6°C | 5.4% | 0hPa | 0V | 00:00:00 | 00:00:00 | 00:00:00 | |
| LZ4TU-5 | 2026-08-31 12:34:47 | -12.04211 | -77.04782 | 0° | 0km/h | 687m | 0.0m/s | -55.3°C | 4.6% | 0hPa | 0V | 00:00:00 | 00:00:00 | 00:00:00 | |
| LZ4TU-5 | 2026-08-31 12:34:42 | -12.04211 | -77.04782 | 0° | 0km/h | 687m | 0.0m/s | -54.5°C | 4.3% | 0hPa | 0V | 00:00:00 | 00:00:00 | 00:00:00 | |
| LZ4TU-5 | 2026-08-31 12:32:49 | -12.02755 | -77.05504 | 0° | 0km/h | 785m | 0.0m/s | -50.6°C | 3.6% | 0hPa | 0V | 00:00:00 | 00:00:00 | 00:00:00 | |
| LZ4TU-5 | 2026-08-31 12:32:45 | -12.02755 | -77.05504 | 0° | 0km/h | 785m | 0.0m/s | -50.9°C | 3.7% | 0hPa | 0V | 00:00:00 | 00:00:00 | 00:00:00 | |
| LZ4TU-5 | 2026-08-31 12:32:41 | -12.02755 | -77.05504 | 0° | 0km/h | 785m | 0.0m/s | -50.9°C | 0% | 0hPa | 0V | 00:00:00 | 00:00:00 | 00:00:00 | |
| LZ4TU-5 | 2026-08-31 12:30:48 | -12.03045 | -77.05286 | 70° | 199km/h | 326m | -3.0m/s | -46.5°C | 3.1% | 0hPa | 0V | 00:00:00 | 00:00:00 | 00:00:00 | |
| LZ4TU-5 | 2026-08-31 12:29:03 | 44.26609 | 26.52967 | 0° | 0km/h | 26249m | 0.0m/s | -47.6°C | 0.9% | 0hPa | 0V | 00:00:00 | 00:00:00 | 00:00:00 | |
| LZ4TU-5 | 2026-08-31 12:28:59 | 44.26609 | 26.52967 | 0° | 0km/h | 26249m | 0.0m/s | -47.4°C | 0.9% | 0hPa | 0V | 00:00:00 | 00:00:00 | 00:00:00 | |
| LZ4TU-5 | 2026-08-31 11:58:45 | 1.62891 | -50.68408 | 0° | 0km/h | 17m | 0.0m/s | -58.7°C | 5.9% | 0hPa | 0V | 00:00:00 | 00:00:00 | 00:00:00 | |
| LZ4TU-5 | 2026-08-31 11:58:40 | 9.84258 | -50.22423 | 0° | 0km/h | 620m | 0.0m/s | -58.7°C | 2.4% | 0hPa | 0V | 00:00:00 | 00:00:00 | 00:00:00 | |
| LZ4TU-5 | 2026-08-31 11:57:01 | 44.25536 | 26.46958 | 0° | 0km/h | 15394m | 0.0m/s | -59.3°C | 2.8% | 0hPa | 0V | 00:00:00 | 00:00:00 | 00:00:00 | |
| LZ4TU-5 | 2026-08-31 11:56:57 | 44.25536 | 26.46958 | 0° | 0km/h | 15394m | 0.0m/s | -59.3°C | 2.9% | 0hPa | 0V | 00:00:00 | 00:00:00 | 00:00:00 | |
| LZ4TU-5 | 2026-08-31 11:55:04 | 44.25536 | 26.46958 | 0° | 0km/h | 15394m | 0.0m/s | -59.1°C | 4.5% | 0hPa | 0V | 00:00:00 | 00:00:00 | 00:00:00 | |
| LZ4TU-5 | 2026-08-31 11:55:00 | 44.25536 | 26.46958 | 0° | 0km/h | 15394m | 0.0m/s | -59.1°C | 4.4% | 0hPa | 0V | 00:00:00 | 00:00:00 | 00:00:00 | |
| LZ4TU-5 | 2026-08-31 11:53:22 | 44.25614 | 26.45652 | 84° | 55km/h | 15060m | 5.1m/s | -59.4°C | 5.5% | 0hPa | 0V | 00:00:00 | 00:00:00 | 00:00:00 | |
| LZ4TU-5 | 2026-08-31 11:53:18 | 44.25610 | 26.45554 | 92° | 55km/h | 15035m | 4.6m/s | -59.4°C | 5.5% | 0hPa | 0V | 00:00:00 | 00:00:00 | 00:00:00 | |
| LZ4TU-5 | 2026-08-31 11:51:36 | 44.25913 | 26.44166 | 118° | 42km/h | 14555m | 4.8m/s | -59.5°C | 5.6% | 0hPa | 0V | 00:00:00 | 00:00:00 | 00:00:00 | |
| LZ4TU-5 | 2026-08-31 11:51:32 | 44.25934 | 26.44109 | 121° | 47km/h | 14535m | 4.7m/s | -59.4°C | 5.8% | 0hPa | 0V | 00:00:00 | 00:00:00 | 00:00:00 | |
| LZ4TU-5 | 2026-08-31 11:49:51 | 44.26626 | 26.42807 | 127° | 46km/h | 14066m | 4.5m/s | -59.6°C | 5.4% | 0hPa | 0V | 00:00:00 | 00:00:00 | 00:00:00 | |
| LZ4TU-5 | 2026-08-31 11:49:46 | 44.26649 | 26.42752 | 120° | 46km/h | 14048m | 4.7m/s | -59.4°C | 5.4% | 0hPa | 0V | 00:00:00 | 00:00:00 | 00:00:00 | |
| LZ4TU-5 | 2026-08-31 11:48:16 | 44.27396 | 26.41817 | 141° | 53km/h | 13605m | 4.2m/s | -57.3°C | 5.9% | 0hPa | 0V | 00:00:00 | 00:00:00 | 00:00:00 | |
| LZ4TU-5 | 2026-08-31 11:48:11 | 44.27438 | 26.41774 | 143° | 51km/h | 13587m | 4.7m/s | -57.3°C | 6.1% | 0hPa | 0V | 00:00:00 | 00:00:00 | 00:00:00 | |
| LZ4TU-5 | 2026-08-31 11:46:31 | 44.28699 | 26.40399 | 140° | 68km/h | 13127m | 5.4m/s | -58.4°C | 10.4% | 0hPa | 0V | 00:00:00 | 00:00:00 | 00:00:00 | |
| LZ4TU-5 | 2026-08-31 11:44:55 | 44.29912 | 26.39585 | 167° | 60km/h | 12692m | 3.5m/s | -57.2°C | 25.1% | 0hPa | 0V | 00:00:00 | 00:00:00 | 00:00:00 | |
| LZ4TU-5 | 2026-08-31 11:44:49 | 44.29988 | 26.39556 | 165° | 66km/h | 12671m | 5.2m/s | -57.3°C | 26.0% | 0hPa | 0V | 00:00:00 | 00:00:00 | 00:00:00 | |
| LZ4TU-5 | 2026-08-31 11:42:59 | 44.31904 | 26.38479 | 155° | 78km/h | 12187m | 3.2m/s | -55.5°C | 39.3% | 0hPa | 0V | 00:00:00 | 00:00:00 | 00:00:00 | |
| LZ4TU-5 | 2026-08-31 11:42:56 | 44.31975 | 26.38427 | 153° | 78km/h | 12170m | 5.0m/s | -55.4°C | 39.2% | 0hPa | 0V | 00:00:00 | 00:00:00 | 00:00:00 | |
| LZ4TU-5 | 2026-08-31 11:41:20 | 44.33543 | 26.37125 | 148° | 73km/h | 11743m | 5.6m/s | -53.0°C | 38.2% | 0hPa | 0V | 00:00:00 | 00:00:00 | 00:00:00 | |
| LZ4TU-5 | 2026-08-31 11:41:16 | 44.33621 | 26.37053 | 148° | 75km/h | 11720m | 4.0m/s | -52.8°C | 0% | 0hPa | 0V | 00:00:00 | 00:00:00 | 00:00:00 | |
| LZ4TU-5 | 2026-08-31 11:39:39 | 44.35119 | 26.35777 | 152° | 73km/h | 11294m | 5.0m/s | -50.1°C | 38.7% | 0hPa | 0V | 00:00:00 | 00:00:00 | 00:00:00 | |
| LZ4TU-5 | 2026-08-31 11:39:36 | 44.35184 | 26.35724 | 149° | 75km/h | 11276m | 4.7m/s | -49.8°C | 39.3% | 0hPa | 0V | 00:00:00 | 00:00:00 | 00:00:00 | |
| LZ4TU-5 | 2026-08-31 11:37:14 | 44.37483 | 26.34053 | 156° | 68km/h | 10654m | 4.7m/s | -45.3°C | 31.3% | 0hPa | 0V | 00:00:00 | 00:00:00 | 00:00:00 | |
| LZ4TU-5 | 2026-08-31 11:37:09 | 44.37559 | 26.34004 | 158° | 66km/h | 10632m | 4.3m/s | -45.2°C | 31.8% | 0hPa | 0V | 00:00:00 | 00:00:00 | 00:00:00 | |
| LZ4TU-5 | 2026-08-31 11:35:47 | 44.38847 | 26.33248 | 152° | 60km/h | 10284m | 4.8m/s | -42.7°C | 34.2% | 0hPa | 0V | 00:00:00 | 00:00:00 | 00:00:00 | |
| LZ4TU-5 | 2026-08-31 11:35:42 | 44.38914 | 26.33195 | 154° | 58km/h | 10257m | 6.3m/s | -42.5°C | 32.2% | 0hPa | 0V | 00:00:00 | 00:00:00 | 00:00:00 | |
| LZ4TU-5 | 2026-08-31 11:34:24 | 44.39853 | 26.32456 | 149° | 58km/h | 9926m | 5.1m/s | -39.8°C | 33.0% | 0hPa | 0V | 00:00:00 | 00:00:00 | 00:00:00 | |
| LZ4TU-5 | 2026-08-31 11:34:20 | 44.39912 | 26.32396 | 142° | 57km/h | 9905m | 5.5m/s | -39.6°C | 32.2% | 0hPa | 0V | 00:00:00 | 00:00:00 | 00:00:00 | |
| LZ4TU-5 | 2026-08-31 11:33:06 | 44.40861 | 26.31376 | 140° | 64km/h | 9605m | 3.8m/s | -37.4°C | 31.3% | 0hPa | 0V | 00:00:00 | 00:00:00 | 00:00:00 | |
| LZ4TU-5 | 2026-08-31 11:33:02 | 44.40925 | 26.31304 | 146° | 68km/h | 9584m | 4.9m/s | -37.3°C | 32.5% | 0hPa | 0V | 00:00:00 | 00:00:00 | 00:00:00 | |
| LZ4TU-5 | 2026-08-31 11:31:47 | 44.41846 | 26.30190 | 138° | 64km/h | 9262m | 3.5m/s | -34.6°C | 33.7% | 0hPa | 0V | 00:00:00 | 00:00:00 | 00:00:00 | |
| LZ4TU-5 | 2026-08-31 11:31:43 | 44.41895 | 26.30131 | 142° | 62km/h | 9244m | 5.4m/s | -34.5°C | 33.3% | 0hPa | 0V | 00:00:00 | 00:00:00 | 00:00:00 | |
| LZ4TU-5 | 2026-08-31 11:30:31 | 44.42556 | 26.29019 | 127° | 51km/h | 8932m | 4.3m/s | -31.8°C | 32.2% | 0hPa | 0V | 00:00:00 | 00:00:00 | 00:00:00 | |
| LZ4TU-5 | 2026-08-31 11:30:26 | 44.42595 | 26.28947 | 128° | 53km/h | 8911m | 4.8m/s | -31.6°C | 32.0% | 0hPa | 0V | 00:00:00 | 00:00:00 | 00:00:00 | |
| LZ4TU-5 | 2026-08-31 11:29:14 | 44.43161 | 26.27942 | 130° | 51km/h | 8603m | 3.7m/s | -29.3°C | 38.2% | 0hPa | 0V | 00:00:00 | 00:00:00 | 00:00:00 | |
| LZ4TU-5 | 2026-08-31 11:29:09 | 44.43200 | 26.27871 | 130° | 49km/h | 8580m | 5.2m/s | -29.2°C | 39.8% | 0hPa | 0V | 00:00:00 | 00:00:00 | 00:00:00 | |
| LZ4TU-5 | 2026-08-31 11:27:55 | 44.43710 | 26.26921 | 134° | 49km/h | 8229m | 5.8m/s | -26.2°C | 21.8% | 0hPa | 0V | 00:00:00 | 00:00:00 | 00:00:00 | |
| LZ4TU-5 | 2026-08-31 11:27:51 | 44.43748 | 26.26860 | 127° | 44km/h | 8203m | 6.9m/s | -25.9°C | 21.8% | 0hPa | 0V | 00:00:00 | 00:00:00 | 00:00:00 | |
| LZ4TU-5 | 2026-08-31 11:26:38 | 44.44271 | 26.25883 | 133° | 47km/h | 7835m | 6.2m/s | -22.6°C | 16.9% | 0hPa | 0V | 00:00:00 | 00:00:00 | 00:00:00 | |
| LZ4TU-5 | 2026-08-31 11:26:33 | 44.44310 | 26.25817 | 131° | 49km/h | 7810m | 6.6m/s | -22.4°C | 17.3% | 0hPa | 0V | 00:00:00 | 00:00:00 | 00:00:00 | |
| LZ4TU-5 | 2026-08-31 11:25:19 | 44.44888 | 26.24790 | 139° | 46km/h | 7436m | 5.4m/s | -19.3°C | 4.7% | 0hPa | 0V | 00:00:00 | 00:00:00 | 00:00:00 | |
| LZ4TU-5 | 2026-08-31 11:25:14 | 44.44929 | 26.24736 | 133° | 42km/h | 7416m | 4.2m/s | -19.1°C | 4.7% | 0hPa | 0V | 00:00:00 | 00:00:00 | 00:00:00 | |
| LZ4TU-5 | 2026-08-31 11:24:08 | 44.45406 | 26.24020 | 136° | 46km/h | 7101m | 3.5m/s | -17.1°C | 9.0% | 0hPa | 0V | 00:00:00 | 00:00:00 | 00:00:00 | |
| LZ4TU-5 | 2026-08-31 11:24:03 | 44.45445 | 26.23966 | 139° | 42km/h | 7077m | 3.7m/s | -16.9°C | 9.0% | 0hPa | 0V | 00:00:00 | 00:00:00 | 00:00:00 | |
| LZ4TU-5 | 2026-08-31 11:22:56 | 44.45940 | 26.23207 | 136° | 38km/h | 6752m | 4.7m/s | -14.7°C | 8.9% | 0hPa | 0V | 00:00:00 | 00:00:00 | 00:00:00 | |
| LZ4TU-5 | 2026-08-31 11:22:51 | 44.45979 | 26.23154 | 136° | 42km/h | 6730m | 3.0m/s | -14.6°C | 9.1% | 0hPa | 0V | 00:00:00 | 00:00:00 | 00:00:00 | |
| LZ4TU-5 | 2026-08-31 11:21:46 | 44.46422 | 26.22612 | 129° | 33km/h | 6426m | 3.2m/s | -12.5°C | 8.3% | 0hPa | 0V | 00:00:00 | 00:00:00 | 00:00:00 | |
| LZ4TU-5 | 2026-08-31 11:21:41 | 44.46455 | 26.22566 | 144° | 35km/h | 6398m | 6.5m/s | -12.4°C | 7.3% | 0hPa | 0V | 00:00:00 | 00:00:00 | 00:00:00 | |
| LZ4TU-5 | 2026-08-31 11:20:35 | 44.46910 | 26.22182 | 170° | 27km/h | 6076m | 4.4m/s | -10.0°C | 6.2% | 0hPa | 0V | 00:00:00 | 00:00:00 | 00:00:00 | |
| LZ4TU-5 | 2026-08-31 11:20:30 | 44.46944 | 26.22165 | 155° | 33km/h | 6051m | 5.1m/s | -9.8°C | 6.7% | 0hPa | 0V | 00:00:00 | 00:00:00 | 00:00:00 | |
| LZ4TU-5 | 2026-08-31 11:18:48 | 44.47647 | 26.21692 | 149° | 29km/h | 5554m | 5.4m/s | -6.2°C | 15.2% | 0hPa | 0V | 00:00:00 | 00:00:00 | 00:00:00 | |
| LZ4TU-5 | 2026-08-31 11:18:43 | 44.47675 | 26.21668 | 148° | 26km/h | 5530m | 6.1m/s | -6.0°C | 15.1% | 0hPa | 0V | 00:00:00 | 00:00:00 | 00:00:00 | |
| LZ4TU-5 | 2026-08-31 11:17:42 | 44.48013 | 26.21443 | 152° | 24km/h | 5242m | 4.0m/s | -4.3°C | 7.4% | 0hPa | 0V | 00:00:00 | 00:00:00 | 00:00:00 | |
| LZ4TU-5 | 2026-08-31 11:17:37 | 44.48042 | 26.21424 | 155° | 27km/h | 5223m | 3.2m/s | -4.2°C | 7.3% | 0hPa | 0V | 00:00:00 | 00:00:00 | 00:00:00 | |
| LZ4TU-5 | 2026-08-31 11:16:35 | 44.48374 | 26.21195 | 108° | 16km/h | 4983m | 5.6m/s | -5.4°C | 47.1% | 0hPa | 0V | 00:00:00 | 00:00:00 | 00:00:00 | |
| LZ4TU-5 | 2026-08-31 11:16:30 | 44.48377 | 26.21171 | 104° | 15km/h | 4959m | 4.8m/s | -5.2°C | 0% | 0hPa | 0V | 00:00:00 | 00:00:00 | 00:00:00 | |
| LZ4TU-5 | 2026-08-31 11:15:28 | 44.48502 | 26.20934 | 147° | 18km/h | 4680m | 3.7m/s | -2.7°C | 40.9% | 0hPa | 0V | 00:00:00 | 00:00:00 | 00:00:00 | |
| LZ4TU-5 | 2026-08-31 11:15:24 | 44.48516 | 26.20924 | 150° | 15km/h | 4663m | 5.1m/s | 0°C | 0% | 0hPa | 0V | 00:00:00 | 00:00:00 | 00:00:00 | |
| LZ4TU-5 | 2026-08-31 11:14:22 | 44.48693 | 26.20792 | 147° | 16km/h | 4376m | 3.1m/s | 0°C | 0% | 0hPa | 0V | 00:00:00 | 00:00:00 | 00:00:00 | |
| LZ4TU-5 | 2026-08-31 11:14:17 | 44.48710 | 26.20784 | 155° | 16km/h | 4356m | 3.7m/s | 0°C | 0% | 0hPa | 0V | 00:00:00 | 00:00:00 | 00:00:00 | |
| LZ4TU-5 | 2026-08-31 11:13:16 | 44.48946 | 26.20597 | 133° | 26km/h | 4054m | 5.9m/s | 0°C | 0% | 0hPa | 0V | 00:00:00 | 00:00:00 | 00:00:00 | |
| LZ4TU-5 | 2026-08-31 11:13:11 | 44.48957 | 26.20582 | 176° | 7km/h | 4031m | 5.1m/s | 0°C | 0% | 0hPa | 0V | 00:00:00 | 00:00:00 | 00:00:00 | |
| LZ4TU-5 | 2026-08-31 11:12:09 | 44.49121 | 26.20368 | 139° | 20km/h | 3731m | 6.3m/s | 0°C | 0% | 0hPa | 0V | 00:00:00 | 00:00:00 | 00:00:00 | |
| LZ4TU-5 | 2026-08-31 11:12:04 | 44.49134 | 26.20335 | 127° | 16km/h | 3708m | 4.6m/s | 0°C | 0% | 0hPa | 0V | 00:00:00 | 00:00:00 | 00:00:00 | |
| LZ4TU-5 | 2026-08-31 11:11:03 | 44.49373 | 26.20189 | 157° | 24km/h | 3395m | 4.7m/s | 0°C | 0% | 0hPa | 0V | 00:00:00 | 00:00:00 | 00:00:00 | |
| LZ4TU-5 | 2026-08-31 11:10:58 | 44.49391 | 26.20175 | 153° | 16km/h | 3368m | 8.4m/s | 0°C | 0% | 0hPa | 0V | 00:00:00 | 00:00:00 | 00:00:00 | |
| LZ4TU-5 | 2026-08-31 11:09:57 | 44.49545 | 26.20107 | 159° | 18km/h | 3071m | 4.9m/s | 0°C | 0% | 0hPa | 0V | 00:00:00 | 00:00:00 | 00:00:00 | |
| LZ4TU-5 | 2026-08-31 11:09:52 | 44.49571 | 26.20106 | 193° | 18km/h | 3046m | 5.6m/s | 0°C | 0% | 0hPa | 0V | 00:00:00 | 00:00:00 | 00:00:00 | |
| LZ4TU-5 | 2026-08-31 11:08:51 | 44.49729 | 26.20030 | 243° | 4km/h | 2748m | 4.6m/s | 0°C | 0% | 0hPa | 0V | 00:00:00 | 00:00:00 | 00:00:00 | |
| LZ4TU-5 | 2026-08-31 11:08:46 | 44.49731 | 26.20039 | 116° | 7km/h | 2724m | 3.3m/s | 0°C | 0% | 0hPa | 0V | 00:00:00 | 00:00:00 | 00:00:00 | |
| LZ4TU-5 | 2026-08-31 11:07:44 | 44.49856 | 26.20062 | 181° | 7km/h | 2418m | 7.0m/s | 0°C | 0% | 0hPa | 0V | 00:00:00 | 00:00:00 | 00:00:00 | |
| LZ4TU-5 | 2026-08-31 11:07:40 | 44.49868 | 26.20073 | 211° | 20km/h | 2393m | 7.0m/s | 0°C | 0% | 0hPa | 0V | 00:00:00 | 00:00:00 | 00:00:00 | |
| LZ4TU-5 | 2026-08-31 11:06:39 | 44.50049 | 26.20099 | 271° | 18km/h | 2068m | 3.8m/s | 0°C | 0% | 0hPa | 0V | 00:00:00 | 00:00:00 | 00:00:00 | |
| LZ4TU-5 | 2026-08-31 11:06:34 | 44.50049 | 26.20116 | 199° | 7km/h | 2046m | 4.6m/s | 0°C | 0% | 0hPa | 0V | 00:00:00 | 00:00:00 | 00:00:00 |